sensor_id;sensor_type;location;lat;lon;timestamp;P1;durP1;ratioP1;P2;durP2;ratioP2
47713;SDS011;33475;46.614;13.888;2023-11-22T00:01:30;6.82;;;6.13;;
47713;SDS011;33475;46.614;13.888;2023-11-22T00:03:56;8.25;;;7.45;;
47713;SDS011;33475;46.614;13.888;2023-11-22T00:06:23;9.38;;;7.78;;
47713;SDS011;33475;46.614;13.888;2023-11-22T00:08:49;7.57;;;6.75;;
47713;SDS011;33475;46.614;13.888;2023-11-22T00:11:15;8.80;;;7.90;;
47713;SDS011;33475;46.614;13.888;2023-11-22T00:13:41;11.05;;;9.32;;
47713;SDS011;33475;46.614;13.888;2023-11-22T00:16:07;11.15;;;8.82;;
47713;SDS011;33475;46.614;13.888;2023-11-22T00:18:36;9.43;;;7.50;;
47713;SDS011;33475;46.614;13.888;2023-11-22T00:21:04;9.43;;;7.78;;
47713;SDS011;33475;46.614;13.888;2023-11-22T00:23:30;10.43;;;8.90;;
47713;SDS011;33475;46.614;13.888;2023-11-22T00:25:57;8.23;;;7.35;;
47713;SDS011;33475;46.614;13.888;2023-11-22T00:28:23;8.90;;;8.00;;
47713;SDS011;33475;46.614;13.888;2023-11-22T00:30:50;10.48;;;7.63;;
47713;SDS011;33475;46.614;13.888;2023-11-22T00:33:16;17.25;;;9.07;;
47713;SDS011;33475;46.614;13.888;2023-11-22T00:35:45;9.98;;;7.47;;
47713;SDS011;33475;46.614;13.888;2023-11-22T00:38:12;11.88;;;8.95;;
47713;SDS011;33475;46.614;13.888;2023-11-22T00:40:38;10.38;;;8.32;;
47713;SDS011;33475;46.614;13.888;2023-11-22T00:43:05;11.82;;;8.15;;
47713;SDS011;33475;46.614;13.888;2023-11-22T00:45:31;11.70;;;8.77;;
47713;SDS011;33475;46.614;13.888;2023-11-22T00:47:58;11.57;;;8.55;;
47713;SDS011;33475;46.614;13.888;2023-11-22T00:50:25;13.50;;;8.98;;
47713;SDS011;33475;46.614;13.888;2023-11-22T00:52:51;12.55;;;8.57;;
47713;SDS011;33475;46.614;13.888;2023-11-22T00:55:17;11.65;;;8.85;;
47713;SDS011;33475;46.614;13.888;2023-11-22T00:57:43;13.70;;;9.27;;
47713;SDS011;33475;46.614;13.888;2023-11-22T01:00:09;12.98;;;10.10;;
47713;SDS011;33475;46.614;13.888;2023-11-22T01:02:37;12.25;;;9.88;;
47713;SDS011;33475;46.614;13.888;2023-11-22T01:05:04;14.60;;;10.13;;
47713;SDS011;33475;46.614;13.888;2023-11-22T01:07:34;11.90;;;9.02;;
47713;SDS011;33475;46.614;13.888;2023-11-22T01:10:00;14.55;;;11.48;;
47713;SDS011;33475;46.614;13.888;2023-11-22T01:12:27;14.25;;;8.77;;
47713;SDS011;33475;46.614;13.888;2023-11-22T01:14:53;10.60;;;8.23;;
47713;SDS011;33475;46.614;13.888;2023-11-22T01:17:19;11.30;;;10.00;;
47713;SDS011;33475;46.614;13.888;2023-11-22T01:19:45;16.52;;;10.77;;
47713;SDS011;33475;46.614;13.888;2023-11-22T01:22:11;14.88;;;9.73;;
47713;SDS011;33475;46.614;13.888;2023-11-22T01:24:37;10.73;;;8.50;;
47713;SDS011;33475;46.614;13.888;2023-11-22T01:27:03;9.95;;;8.65;;
47713;SDS011;33475;46.614;13.888;2023-11-22T01:29:30;7.65;;;6.93;;
47713;SDS011;33475;46.614;13.888;2023-11-22T01:31:56;6.32;;;5.10;;
47713;SDS011;33475;46.614;13.888;2023-11-22T01:34:23;7.35;;;5.70;;
47713;SDS011;33475;46.614;13.888;2023-11-22T01:36:49;16.35;;;10.90;;
47713;SDS011;33475;46.614;13.888;2023-11-22T01:39:16;7.53;;;5.85;;
47713;SDS011;33475;46.614;13.888;2023-11-22T01:41:45;4.32;;;3.92;;
47713;SDS011;33475;46.614;13.888;2023-11-22T01:44:14;5.22;;;4.72;;
47713;SDS011;33475;46.614;13.888;2023-11-22T01:46:41;5.28;;;4.53;;
47713;SDS011;33475;46.614;13.888;2023-11-22T01:49:09;4.32;;;2.80;;
47713;SDS011;33475;46.614;13.888;2023-11-22T01:51:35;3.60;;;3.13;;
47713;SDS011;33475;46.614;13.888;2023-11-22T01:54:01;4.93;;;3.47;;
47713;SDS011;33475;46.614;13.888;2023-11-22T01:56:28;4.80;;;3.33;;
47713;SDS011;33475;46.614;13.888;2023-11-22T01:58:54;8.00;;;3.63;;
47713;SDS011;33475;46.614;13.888;2023-11-22T02:01:21;3.50;;;3.20;;
47713;SDS011;33475;46.614;13.888;2023-11-22T02:03:47;3.25;;;2.95;;
47713;SDS011;33475;46.614;13.888;2023-11-22T02:06:17;2.92;;;2.60;;
47713;SDS011;33475;46.614;13.888;2023-11-22T02:08:43;3.72;;;2.55;;
47713;SDS011;33475;46.614;13.888;2023-11-22T02:11:09;3.50;;;2.67;;
47713;SDS011;33475;46.614;13.888;2023-11-22T02:13:36;3.97;;;2.67;;
47713;SDS011;33475;46.614;13.888;2023-11-22T02:16:02;3.13;;;2.83;;
47713;SDS011;33475;46.614;13.888;2023-11-22T02:18:29;3.35;;;2.70;;
47713;SDS011;33475;46.614;13.888;2023-11-22T02:20:56;4.45;;;2.95;;
47713;SDS011;33475;46.614;13.888;2023-11-22T02:23:22;4.28;;;3.47;;
47713;SDS011;33475;46.614;13.888;2023-11-22T02:25:48;5.38;;;4.18;;
47713;SDS011;33475;46.614;13.888;2023-11-22T02:28:14;4.20;;;3.20;;
47713;SDS011;33475;46.614;13.888;2023-11-22T02:30:41;3.83;;;2.10;;
47713;SDS011;33475;46.614;13.888;2023-11-22T02:33:07;3.13;;;2.40;;
47713;SDS011;33475;46.614;13.888;2023-11-22T02:35:34;2.33;;;2.05;;
47713;SDS011;33475;46.614;13.888;2023-11-22T02:38:00;2.00;;;1.80;;
47713;SDS011;33475;46.614;13.888;2023-11-22T02:40:26;3.17;;;2.75;;
47713;SDS011;33475;46.614;13.888;2023-11-22T02:42:53;2.10;;;1.90;;
47713;SDS011;33475;46.614;13.888;2023-11-22T02:45:23;2.80;;;2.53;;
47713;SDS011;33475;46.614;13.888;2023-11-22T02:47:49;3.60;;;2.30;;
47713;SDS011;33475;46.614;13.888;2023-11-22T02:50:17;2.13;;;1.85;;
47713;SDS011;33475;46.614;13.888;2023-11-22T02:52:43;2.30;;;2.10;;
47713;SDS011;33475;46.614;13.888;2023-11-22T02:55:10;2.13;;;1.92;;
47713;SDS011;33475;46.614;13.888;2023-11-22T02:57:36;2.55;;;2.28;;
47713;SDS011;33475;46.614;13.888;2023-11-22T03:00:06;3.13;;;2.83;;
47713;SDS011;33475;46.614;13.888;2023-11-22T03:02:33;2.65;;;2.45;;
47713;SDS011;33475;46.614;13.888;2023-11-22T03:04:59;5.40;;;2.20;;
47713;SDS011;33475;46.614;13.888;2023-11-22T03:07:26;4.57;;;2.35;;
47713;SDS011;33475;46.614;13.888;2023-11-22T03:09:52;2.50;;;2.30;;
47713;SDS011;33475;46.614;13.888;2023-11-22T03:12:19;2.63;;;2.42;;
47713;SDS011;33475;46.614;13.888;2023-11-22T03:14:48;2.60;;;2.35;;
47713;SDS011;33475;46.614;13.888;2023-11-22T03:17:14;3.05;;;2.40;;
47713;SDS011;33475;46.614;13.888;2023-11-22T03:19:40;2.53;;;2.30;;
47713;SDS011;33475;46.614;13.888;2023-11-22T03:22:07;2.53;;;2.05;;
47713;SDS011;33475;46.614;13.888;2023-11-22T03:24:34;2.63;;;1.85;;
47713;SDS011;33475;46.614;13.888;2023-11-22T03:27:02;2.80;;;1.95;;
47713;SDS011;33475;46.614;13.888;2023-11-22T03:29:28;2.10;;;1.90;;
47713;SDS011;33475;46.614;13.888;2023-11-22T03:31:55;2.40;;;2.20;;
47713;SDS011;33475;46.614;13.888;2023-11-22T03:34:21;2.03;;;1.80;;
47713;SDS011;33475;46.614;13.888;2023-11-22T03:36:47;2.20;;;2.00;;
47713;SDS011;33475;46.614;13.888;2023-11-22T03:39:17;6.40;;;2.75;;
47713;SDS011;33475;46.614;13.888;2023-11-22T03:41:43;4.15;;;1.85;;
47713;SDS011;33475;46.614;13.888;2023-11-22T03:44:09;2.97;;;2.08;;
47713;SDS011;33475;46.614;13.888;2023-11-22T03:46:36;1.70;;;1.60;;
47713;SDS011;33475;46.614;13.888;2023-11-22T03:49:05;2.08;;;1.80;;
47713;SDS011;33475;46.614;13.888;2023-11-22T03:51:32;2.20;;;1.83;;
47713;SDS011;33475;46.614;13.888;2023-11-22T03:53:58;2.83;;;2.10;;
47713;SDS011;33475;46.614;13.888;2023-11-22T03:56:24;2.53;;;1.95;;
47713;SDS011;33475;46.614;13.888;2023-11-22T03:58:50;2.53;;;2.03;;
47713;SDS011;33475;46.614;13.888;2023-11-22T04:01:17;2.30;;;2.10;;
47713;SDS011;33475;46.614;13.888;2023-11-22T04:03:43;2.13;;;2.00;;
47713;SDS011;33475;46.614;13.888;2023-11-22T04:06:10;1.98;;;1.60;;
47713;SDS011;33475;46.614;13.888;2023-11-22T04:08:36;2.50;;;2.30;;
47713;SDS011;33475;46.614;13.888;2023-11-22T04:11:03;1.90;;;1.55;;
47713;SDS011;33475;46.614;13.888;2023-11-22T04:13:30;4.25;;;2.10;;
47713;SDS011;33475;46.614;13.888;2023-11-22T04:15:57;2.42;;;1.80;;
47713;SDS011;33475;46.614;13.888;2023-11-22T04:18:23;1.98;;;1.60;;
47713;SDS011;33475;46.614;13.888;2023-11-22T04:20:50;3.25;;;1.92;;
47713;SDS011;33475;46.614;13.888;2023-11-22T04:23:16;3.13;;;1.52;;
47713;SDS011;33475;46.614;13.888;2023-11-22T04:25:42;2.33;;;1.80;;
47713;SDS011;33475;46.614;13.888;2023-11-22T04:28:09;3.08;;;1.88;;
47713;SDS011;33475;46.614;13.888;2023-11-22T04:30:35;3.58;;;1.65;;
47713;SDS011;33475;46.614;13.888;2023-11-22T04:33:01;1.40;;;1.30;;
47713;SDS011;33475;46.614;13.888;2023-11-22T04:35:27;1.75;;;1.35;;
47713;SDS011;33475;46.614;13.888;2023-11-22T04:37:54;2.03;;;1.58;;
47713;SDS011;33475;46.614;13.888;2023-11-22T04:40:20;5.05;;;1.25;;
47713;SDS011;33475;46.614;13.888;2023-11-22T04:42:47;1.92;;;1.30;;
47713;SDS011;33475;46.614;13.888;2023-11-22T04:45:13;1.77;;;1.30;;
47713;SDS011;33475;46.614;13.888;2023-11-22T04:47:39;3.83;;;1.42;;
47713;SDS011;33475;46.614;13.888;2023-11-22T04:50:06;2.13;;;1.45;;
47713;SDS011;33475;46.614;13.888;2023-11-22T04:52:32;3.00;;;1.80;;
47713;SDS011;33475;46.614;13.888;2023-11-22T04:54:58;1.77;;;1.52;;
47713;SDS011;33475;46.614;13.888;2023-11-22T04:57:24;1.85;;;1.48;;
47713;SDS011;33475;46.614;13.888;2023-11-22T04:59:50;3.42;;;1.60;;
47713;SDS011;33475;46.614;13.888;2023-11-22T05:02:17;1.92;;;1.70;;
47713;SDS011;33475;46.614;13.888;2023-11-22T05:04:43;1.65;;;1.45;;
47713;SDS011;33475;46.614;13.888;2023-11-22T05:07:14;1.73;;;1.60;;
47713;SDS011;33475;46.614;13.888;2023-11-22T05:09:40;2.03;;;1.50;;
47713;SDS011;33475;46.614;13.888;2023-11-22T05:12:09;1.23;;;1.10;;
47713;SDS011;33475;46.614;13.888;2023-11-22T05:14:36;1.50;;;1.40;;
47713;SDS011;33475;46.614;13.888;2023-11-22T05:17:02;2.50;;;1.40;;
47713;SDS011;33475;46.614;13.888;2023-11-22T05:19:28;1.75;;;1.63;;
47713;SDS011;33475;46.614;13.888;2023-11-22T05:21:55;2.20;;;1.50;;
47713;SDS011;33475;46.614;13.888;2023-11-22T05:24:21;2.50;;;1.92;;
47713;SDS011;33475;46.614;13.888;2023-11-22T05:26:47;2.83;;;2.00;;
47713;SDS011;33475;46.614;13.888;2023-11-22T05:29:13;2.38;;;2.15;;
47713;SDS011;33475;46.614;13.888;2023-11-22T05:31:39;2.25;;;2.05;;
47713;SDS011;33475;46.614;13.888;2023-11-22T05:34:06;3.20;;;2.58;;
47713;SDS011;33475;46.614;13.888;2023-11-22T05:36:32;2.45;;;2.03;;
47713;SDS011;33475;46.614;13.888;2023-11-22T05:38:58;2.35;;;2.00;;
47713;SDS011;33475;46.614;13.888;2023-11-22T05:41:24;2.92;;;2.00;;
47713;SDS011;33475;46.614;13.888;2023-11-22T05:43:51;2.45;;;2.05;;
47713;SDS011;33475;46.614;13.888;2023-11-22T05:46:18;2.92;;;2.10;;
47713;SDS011;33475;46.614;13.888;2023-11-22T05:48:49;3.28;;;2.20;;
47713;SDS011;33475;46.614;13.888;2023-11-22T05:51:16;2.53;;;2.15;;
47713;SDS011;33475;46.614;13.888;2023-11-22T05:53:42;3.17;;;2.42;;
47713;SDS011;33475;46.614;13.888;2023-11-22T05:56:08;2.45;;;2.25;;
47713;SDS011;33475;46.614;13.888;2023-11-22T05:58:35;3.17;;;2.28;;
47713;SDS011;33475;46.614;13.888;2023-11-22T06:01:04;2.65;;;2.13;;
47713;SDS011;33475;46.614;13.888;2023-11-22T06:03:31;3.33;;;2.25;;
47713;SDS011;33475;46.614;13.888;2023-11-22T06:05:57;3.78;;;2.00;;
47713;SDS011;33475;46.614;13.888;2023-11-22T06:08:24;3.47;;;2.55;;
47713;SDS011;33475;46.614;13.888;2023-11-22T06:10:50;3.63;;;2.63;;
47713;SDS011;33475;46.614;13.888;2023-11-22T06:13:18;2.88;;;2.58;;
47713;SDS011;33475;46.614;13.888;2023-11-22T06:15:45;4.43;;;3.03;;
47713;SDS011;33475;46.614;13.888;2023-11-22T06:18:11;2.65;;;2.42;;
47713;SDS011;33475;46.614;13.888;2023-11-22T06:20:39;3.58;;;2.88;;
47713;SDS011;33475;46.614;13.888;2023-11-22T06:23:05;3.22;;;2.90;;
47713;SDS011;33475;46.614;13.888;2023-11-22T06:25:31;3.20;;;2.90;;
47713;SDS011;33475;46.614;13.888;2023-11-22T06:27:57;3.78;;;2.70;;
47713;SDS011;33475;46.614;13.888;2023-11-22T06:30:24;2.67;;;2.42;;
47713;SDS011;33475;46.614;13.888;2023-11-22T06:32:51;2.33;;;2.13;;
47713;SDS011;33475;46.614;13.888;2023-11-22T06:35:17;6.28;;;2.72;;
47713;SDS011;33475;46.614;13.888;2023-11-22T06:37:43;4.50;;;2.67;;
47713;SDS011;33475;46.614;13.888;2023-11-22T06:40:10;3.33;;;3.03;;
47713;SDS011;33475;46.614;13.888;2023-11-22T06:42:42;3.45;;;2.60;;
47713;SDS011;33475;46.614;13.888;2023-11-22T06:45:08;2.83;;;2.58;;
47713;SDS011;33475;46.614;13.888;2023-11-22T06:47:41;3.08;;;2.78;;
47713;SDS011;33475;46.614;13.888;2023-11-22T06:50:09;2.55;;;2.35;;
47713;SDS011;33475;46.614;13.888;2023-11-22T06:52:36;3.13;;;2.80;;
47713;SDS011;33475;46.614;13.888;2023-11-22T06:55:03;2.05;;;1.83;;
47713;SDS011;33475;46.614;13.888;2023-11-22T06:57:30;6.25;;;2.75;;
47713;SDS011;33475;46.614;13.888;2023-11-22T06:59:56;2.35;;;2.10;;
47713;SDS011;33475;46.614;13.888;2023-11-22T07:02:23;3.08;;;2.60;;
47713;SDS011;33475;46.614;13.888;2023-11-22T07:04:49;2.83;;;2.63;;
47713;SDS011;33475;46.614;13.888;2023-11-22T07:07:15;2.53;;;2.25;;
47713;SDS011;33475;46.614;13.888;2023-11-22T07:09:42;2.92;;;2.63;;
47713;SDS011;33475;46.614;13.888;2023-11-22T07:12:09;3.15;;;2.70;;
47713;SDS011;33475;46.614;13.888;2023-11-22T07:14:35;6.05;;;2.67;;
47713;SDS011;33475;46.614;13.888;2023-11-22T07:17:01;3.90;;;3.22;;
47713;SDS011;33475;46.614;13.888;2023-11-22T07:19:28;3.58;;;3.00;;
47713;SDS011;33475;46.614;13.888;2023-11-22T07:21:54;4.85;;;2.85;;
47713;SDS011;33475;46.614;13.888;2023-11-22T07:24:20;2.97;;;2.67;;
47713;SDS011;33475;46.614;13.888;2023-11-22T07:26:48;5.40;;;3.40;;
47713;SDS011;33475;46.614;13.888;2023-11-22T07:29:14;5.53;;;3.38;;
47713;SDS011;33475;46.614;13.888;2023-11-22T07:31:41;5.95;;;2.80;;
47713;SDS011;33475;46.614;13.888;2023-11-22T07:34:07;3.67;;;2.80;;
47713;SDS011;33475;46.614;13.888;2023-11-22T07:36:38;4.50;;;3.22;;
47713;SDS011;33475;46.614;13.888;2023-11-22T07:39:05;4.13;;;3.10;;
47713;SDS011;33475;46.614;13.888;2023-11-22T07:41:31;4.82;;;3.22;;
47713;SDS011;33475;46.614;13.888;2023-11-22T07:44:00;3.42;;;3.13;;
47713;SDS011;33475;46.614;13.888;2023-11-22T07:46:26;10.73;;;3.10;;
47713;SDS011;33475;46.614;13.888;2023-11-22T07:48:52;4.03;;;3.20;;
47713;SDS011;33475;46.614;13.888;2023-11-22T07:51:18;5.07;;;3.40;;
47713;SDS011;33475;46.614;13.888;2023-11-22T07:53:45;4.60;;;2.83;;
47713;SDS011;33475;46.614;13.888;2023-11-22T07:56:11;5.10;;;2.65;;
47713;SDS011;33475;46.614;13.888;2023-11-22T07:58:37;2.65;;;2.45;;
47713;SDS011;33475;46.614;13.888;2023-11-22T08:01:03;3.35;;;2.70;;
47713;SDS011;33475;46.614;13.888;2023-11-22T08:03:29;3.38;;;3.08;;
47713;SDS011;33475;46.614;13.888;2023-11-22T08:05:56;3.95;;;3.22;;
47713;SDS011;33475;46.614;13.888;2023-11-22T08:08:22;3.85;;;3.17;;
47713;SDS011;33475;46.614;13.888;2023-11-22T08:10:49;4.32;;;2.80;;
47713;SDS011;33475;46.614;13.888;2023-11-22T08:13:19;4.53;;;2.47;;
47713;SDS011;33475;46.614;13.888;2023-11-22T08:15:48;3.30;;;3.00;;
47713;SDS011;33475;46.614;13.888;2023-11-22T08:18:14;3.63;;;3.33;;
47713;SDS011;33475;46.614;13.888;2023-11-22T08:20:42;4.15;;;3.55;;
47713;SDS011;33475;46.614;13.888;2023-11-22T08:23:08;3.35;;;3.05;;
47713;SDS011;33475;46.614;13.888;2023-11-22T08:25:37;7.07;;;3.05;;
47713;SDS011;33475;46.614;13.888;2023-11-22T08:28:03;3.38;;;3.08;;
47713;SDS011;33475;46.614;13.888;2023-11-22T08:30:33;4.75;;;3.05;;
47713;SDS011;33475;46.614;13.888;2023-11-22T08:33:01;3.05;;;2.58;;
47713;SDS011;33475;46.614;13.888;2023-11-22T08:35:27;3.70;;;3.25;;
47713;SDS011;33475;46.614;13.888;2023-11-22T08:37:54;3.40;;;3.10;;
47713;SDS011;33475;46.614;13.888;2023-11-22T08:40:22;4.03;;;3.40;;
47713;SDS011;33475;46.614;13.888;2023-11-22T08:42:49;5.50;;;3.33;;
47713;SDS011;33475;46.614;13.888;2023-11-22T08:45:15;4.15;;;3.03;;
47713;SDS011;33475;46.614;13.888;2023-11-22T08:47:42;3.47;;;3.17;;
47713;SDS011;33475;46.614;13.888;2023-11-22T08:50:08;3.60;;;3.30;;
47713;SDS011;33475;46.614;13.888;2023-11-22T08:52:36;5.95;;;3.60;;
47713;SDS011;33475;46.614;13.888;2023-11-22T08:55:04;4.05;;;3.65;;
47713;SDS011;33475;46.614;13.888;2023-11-22T08:57:33;3.40;;;3.05;;
47713;SDS011;33475;46.614;13.888;2023-11-22T09:00:00;3.90;;;3.50;;
47713;SDS011;33475;46.614;13.888;2023-11-22T09:02:35;6.50;;;3.58;;
47713;SDS011;33475;46.614;13.888;2023-11-22T09:05:01;6.78;;;3.60;;
47713;SDS011;33475;46.614;13.888;2023-11-22T09:07:31;4.22;;;3.83;;
47713;SDS011;33475;46.614;13.888;2023-11-22T09:09:59;4.70;;;4.20;;
47713;SDS011;33475;46.614;13.888;2023-11-22T09:12:25;5.72;;;4.28;;
47713;SDS011;33475;46.614;13.888;2023-11-22T09:14:52;4.38;;;3.50;;
47713;SDS011;33475;46.614;13.888;2023-11-22T09:17:18;4.13;;;3.72;;
47713;SDS011;33475;46.614;13.888;2023-11-22T09:19:45;4.85;;;3.50;;
47713;SDS011;33475;46.614;13.888;2023-11-22T09:22:12;4.28;;;3.70;;
47713;SDS011;33475;46.614;13.888;2023-11-22T09:24:40;5.20;;;4.00;;
47713;SDS011;33475;46.614;13.888;2023-11-22T09:27:06;19.00;;;16.35;;
47713;SDS011;33475;46.614;13.888;2023-11-22T09:29:35;6.45;;;5.70;;
47713;SDS011;33475;46.614;13.888;2023-11-22T09:32:01;9.48;;;8.52;;
47713;SDS011;33475;46.614;13.888;2023-11-22T09:34:28;10.52;;;7.63;;
47713;SDS011;33475;46.614;13.888;2023-11-22T09:36:55;4.63;;;4.20;;
47713;SDS011;33475;46.614;13.888;2023-11-22T09:39:21;6.40;;;5.82;;
47713;SDS011;33475;46.614;13.888;2023-11-22T09:41:50;4.18;;;3.78;;
47713;SDS011;33475;46.614;13.888;2023-11-22T09:44:17;6.70;;;6.10;;
47713;SDS011;33475;46.614;13.888;2023-11-22T09:46:43;4.05;;;3.75;;
47713;SDS011;33475;46.614;13.888;2023-11-22T09:49:10;19.98;;;5.82;;
47713;SDS011;33475;46.614;13.888;2023-11-22T09:51:40;5.72;;;4.72;;
47713;SDS011;33475;46.614;13.888;2023-11-22T09:54:07;4.95;;;4.45;;
47713;SDS011;33475;46.614;13.888;2023-11-22T09:56:38;2.80;;;2.60;;
47713;SDS011;33475;46.614;13.888;2023-11-22T09:59:05;6.47;;;5.80;;
47713;SDS011;33475;46.614;13.888;2023-11-22T10:01:32;2.58;;;2.38;;
47713;SDS011;33475;46.614;13.888;2023-11-22T10:04:01;5.63;;;5.13;;
47713;SDS011;33475;46.614;13.888;2023-11-22T10:06:30;3.05;;;2.67;;
47713;SDS011;33475;46.614;13.888;2023-11-22T10:09:00;2.45;;;2.25;;
47713;SDS011;33475;46.614;13.888;2023-11-22T10:11:26;3.88;;;3.58;;
47713;SDS011;33475;46.614;13.888;2023-11-22T10:13:54;3.20;;;3.00;;
47713;SDS011;33475;46.614;13.888;2023-11-22T10:16:22;8.40;;;3.63;;
47713;SDS011;33475;46.614;13.888;2023-11-22T10:18:48;3.53;;;3.22;;
47713;SDS011;33475;46.614;13.888;2023-11-22T10:21:36;4.20;;;3.60;;
47713;SDS011;33475;46.614;13.888;2023-11-22T10:24:05;4.18;;;3.58;;
47713;SDS011;33475;46.614;13.888;2023-11-22T10:26:34;4.65;;;4.25;;
47713;SDS011;33475;46.614;13.888;2023-11-22T10:29:00;3.65;;;3.33;;
47713;SDS011;33475;46.614;13.888;2023-11-22T10:31:27;13.00;;;8.00;;
47713;SDS011;33475;46.614;13.888;2023-11-22T10:33:54;6.85;;;3.47;;
47713;SDS011;33475;46.614;13.888;2023-11-22T10:36:22;9.10;;;6.63;;
47713;SDS011;33475;46.614;13.888;2023-11-22T10:38:49;5.53;;;5.00;;
47713;SDS011;33475;46.614;13.888;2023-11-22T10:41:19;5.60;;;5.03;;
47713;SDS011;33475;46.614;13.888;2023-11-22T10:43:49;5.03;;;3.83;;
47713;SDS011;33475;46.614;13.888;2023-11-22T10:46:16;7.85;;;3.83;;
47713;SDS011;33475;46.614;13.888;2023-11-22T10:48:42;8.48;;;4.50;;
47713;SDS011;33475;46.614;13.888;2023-11-22T10:51:08;6.80;;;4.53;;
47713;SDS011;33475;46.614;13.888;2023-11-22T10:53:37;4.10;;;3.47;;
47713;SDS011;33475;46.614;13.888;2023-11-22T10:56:11;5.80;;;3.95;;
47713;SDS011;33475;46.614;13.888;2023-11-22T10:58:45;8.00;;;4.20;;
47713;SDS011;33475;46.614;13.888;2023-11-22T11:01:12;6.55;;;3.58;;
47713;SDS011;33475;46.614;13.888;2023-11-22T11:03:40;4.50;;;3.75;;
47713;SDS011;33475;46.614;13.888;2023-11-22T11:06:10;3.88;;;3.42;;
47713;SDS011;33475;46.614;13.888;2023-11-22T11:08:38;4.32;;;3.67;;
47713;SDS011;33475;46.614;13.888;2023-11-22T11:11:05;3.83;;;3.20;;
47713;SDS011;33475;46.614;13.888;2023-11-22T11:13:31;3.20;;;2.80;;
47713;SDS011;33475;46.614;13.888;2023-11-22T11:15:58;7.13;;;6.18;;
47713;SDS011;33475;46.614;13.888;2023-11-22T11:18:24;3.83;;;3.53;;
47713;SDS011;33475;46.614;13.888;2023-11-22T11:20:55;5.30;;;4.18;;
47713;SDS011;33475;46.614;13.888;2023-11-22T11:23:25;3.47;;;2.15;;
47713;SDS011;33475;46.614;13.888;2023-11-22T11:25:55;4.25;;;3.85;;
47713;SDS011;33475;46.614;13.888;2023-11-22T11:28:24;4.45;;;4.05;;
47713;SDS011;33475;46.614;13.888;2023-11-22T11:30:51;5.00;;;2.03;;
47713;SDS011;33475;46.614;13.888;2023-11-22T11:33:19;3.60;;;2.50;;
47713;SDS011;33475;46.614;13.888;2023-11-22T11:35:49;2.90;;;2.60;;
47713;SDS011;33475;46.614;13.888;2023-11-22T11:38:21;3.85;;;2.30;;
47713;SDS011;33475;46.614;13.888;2023-11-22T11:40:52;2.20;;;2.00;;
47713;SDS011;33475;46.614;13.888;2023-11-22T11:43:38;2.53;;;1.90;;
47713;SDS011;33475;46.614;13.888;2023-11-22T11:46:08;4.78;;;3.10;;
47713;SDS011;33475;46.614;13.888;2023-11-22T11:48:34;2.67;;;2.20;;
47713;SDS011;33475;46.614;13.888;2023-11-22T11:51:01;3.92;;;1.50;;
47713;SDS011;33475;46.614;13.888;2023-11-22T11:53:27;2.10;;;1.85;;
47713;SDS011;33475;46.614;13.888;2023-11-22T11:55:55;2.33;;;2.13;;
47713;SDS011;33475;46.614;13.888;2023-11-22T11:58:22;2.22;;;2.00;;
47713;SDS011;33475;46.614;13.888;2023-11-22T12:00:51;3.22;;;2.15;;
47713;SDS011;33475;46.614;13.888;2023-11-22T12:03:19;3.13;;;2.05;;
47713;SDS011;33475;46.614;13.888;2023-11-22T12:05:47;3.78;;;1.77;;
47713;SDS011;33475;46.614;13.888;2023-11-22T12:08:16;2.33;;;2.13;;
47713;SDS011;33475;46.614;13.888;2023-11-22T12:10:44;1.90;;;1.70;;
47713;SDS011;33475;46.614;13.888;2023-11-22T12:13:20;3.10;;;2.40;;
47713;SDS011;33475;46.614;13.888;2023-11-22T12:15:47;3.38;;;2.33;;
47713;SDS011;33475;46.614;13.888;2023-11-22T12:18:13;3.55;;;2.63;;
47713;SDS011;33475;46.614;13.888;2023-11-22T12:20:41;2.22;;;2.05;;
47713;SDS011;33475;46.614;13.888;2023-11-22T12:23:07;5.35;;;2.40;;
47713;SDS011;33475;46.614;13.888;2023-11-22T12:25:34;2.95;;;2.47;;
47713;SDS011;33475;46.614;13.888;2023-11-22T12:28:01;2.47;;;2.28;;
47713;SDS011;33475;46.614;13.888;2023-11-22T12:30:35;3.10;;;2.80;;
47713;SDS011;33475;46.614;13.888;2023-11-22T12:33:02;3.40;;;2.70;;
47713;SDS011;33475;46.614;13.888;2023-11-22T12:35:30;3.08;;;2.78;;
47713;SDS011;33475;46.614;13.888;2023-11-22T12:38:01;3.17;;;2.85;;
47713;SDS011;33475;46.614;13.888;2023-11-22T12:40:30;5.25;;;2.67;;
47713;SDS011;33475;46.614;13.888;2023-11-22T12:42:58;3.95;;;3.33;;
47713;SDS011;33475;46.614;13.888;2023-11-22T12:45:26;5.32;;;3.03;;
47713;SDS011;33475;46.614;13.888;2023-11-22T12:47:54;3.53;;;3.17;;
47713;SDS011;33475;46.614;13.888;2023-11-22T12:50:33;3.22;;;2.92;;
47713;SDS011;33475;46.614;13.888;2023-11-22T12:53:13;3.95;;;3.05;;
47713;SDS011;33475;46.614;13.888;2023-11-22T12:55:46;3.20;;;2.90;;
47713;SDS011;33475;46.614;13.888;2023-11-22T12:58:14;3.58;;;3.20;;
47713;SDS011;33475;46.614;13.888;2023-11-22T13:00:40;3.63;;;3.33;;
47713;SDS011;33475;46.614;13.888;2023-11-22T13:03:07;5.63;;;3.40;;
47713;SDS011;33475;46.614;13.888;2023-11-22T13:05:36;3.65;;;2.80;;
47713;SDS011;33475;46.614;13.888;2023-11-22T13:08:02;3.70;;;3.30;;
47713;SDS011;33475;46.614;13.888;2023-11-22T13:10:29;4.43;;;3.10;;
47713;SDS011;33475;46.614;13.888;2023-11-22T13:12:55;4.38;;;3.67;;
47713;SDS011;33475;46.614;13.888;2023-11-22T13:15:22;4.45;;;3.40;;
47713;SDS011;33475;46.614;13.888;2023-11-22T13:17:49;3.30;;;3.00;;
47713;SDS011;33475;46.614;13.888;2023-11-22T13:20:20;5.63;;;3.30;;
47713;SDS011;33475;46.614;13.888;2023-11-22T13:22:47;5.70;;;4.28;;
47713;SDS011;33475;46.614;13.888;2023-11-22T13:25:13;4.53;;;3.92;;
47713;SDS011;33475;46.614;13.888;2023-11-22T13:27:42;4.95;;;4.30;;
47713;SDS011;33475;46.614;13.888;2023-11-22T13:30:08;4.45;;;3.00;;
47713;SDS011;33475;46.614;13.888;2023-11-22T13:32:34;4.93;;;3.08;;
47713;SDS011;33475;46.614;13.888;2023-11-22T13:35:00;4.00;;;3.60;;
47713;SDS011;33475;46.614;13.888;2023-11-22T13:37:30;5.25;;;3.20;;
47713;SDS011;33475;46.614;13.888;2023-11-22T13:39:56;7.00;;;3.72;;
47713;SDS011;33475;46.614;13.888;2023-11-22T13:42:23;5.20;;;3.72;;
47713;SDS011;33475;46.614;13.888;2023-11-22T13:44:49;5.45;;;3.42;;
47713;SDS011;33475;46.614;13.888;2023-11-22T13:47:15;4.45;;;3.60;;
47713;SDS011;33475;46.614;13.888;2023-11-22T13:49:42;8.07;;;4.03;;
47713;SDS011;33475;46.614;13.888;2023-11-22T13:52:08;4.95;;;3.67;;
47713;SDS011;33475;46.614;13.888;2023-11-22T13:54:34;5.35;;;3.50;;
47713;SDS011;33475;46.614;13.888;2023-11-22T13:57:04;4.00;;;3.50;;
47713;SDS011;33475;46.614;13.888;2023-11-22T13:59:31;4.32;;;3.92;;
47713;SDS011;33475;46.614;13.888;2023-11-22T14:01:57;4.30;;;3.50;;
47713;SDS011;33475;46.614;13.888;2023-11-22T14:04:23;7.65;;;3.72;;
47713;SDS011;33475;46.614;13.888;2023-11-22T14:06:50;3.90;;;3.42;;
47713;SDS011;33475;46.614;13.888;2023-11-22T14:09:16;4.22;;;3.83;;
47713;SDS011;33475;46.614;13.888;2023-11-22T14:11:44;4.07;;;3.65;;
47713;SDS011;33475;46.614;13.888;2023-11-22T14:14:11;9.00;;;5.53;;
47713;SDS011;33475;46.614;13.888;2023-11-22T14:16:37;5.60;;;4.05;;
47713;SDS011;33475;46.614;13.888;2023-11-22T14:19:06;4.10;;;3.70;;
47713;SDS011;33475;46.614;13.888;2023-11-22T14:21:32;6.47;;;4.45;;
47713;SDS011;33475;46.614;13.888;2023-11-22T14:23:59;4.88;;;4.28;;
47713;SDS011;33475;46.614;13.888;2023-11-22T14:26:25;11.02;;;3.80;;
47713;SDS011;33475;46.614;13.888;2023-11-22T14:28:51;4.40;;;3.80;;
47713;SDS011;33475;46.614;13.888;2023-11-22T14:31:18;4.45;;;3.88;;
47713;SDS011;33475;46.614;13.888;2023-11-22T14:33:44;7.13;;;4.68;;